Time;durP1;ratioP1;P1;durP2;ratioP2;P2;SDS_P1;SDS_P2;PMS_P1;PMS_P2;Temp;Humidity;BMP_temperature;BMP_pressure;BME280_temperature;BME280_humidity;BME280_pressure;Samples;Min_cycle;Max_cycle;Signal;HPM_P1;HPM_P2
2024/01/10 00:07:41;;;;;;;4.78;2.55;;;-1.90;1.00;;;;;;20764192;28;20497;-38
2024/01/10 00:17:41;;;;;;;5.22;2.70;;;-2.00;1.00;;;;;;20766478;28;20136;-37
2024/01/10 00:27:42;;;;;;;5.83;2.60;;;-2.10;1.00;;;;;;20769652;28;20033;-37
2024/01/10 00:37:43;;;;;;;5.57;2.38;;;-2.20;1.00;;;;;;20765721;28;20452;-36
2024/01/10 00:47:43;;;;;;;6.70;2.38;;;-2.20;1.00;;;;;;20769295;28;20041;-36
2024/01/10 00:57:44;;;;;;;5.13;2.10;;;-2.20;1.00;;;;;;20764028;28;20037;-37
2024/01/10 01:07:44;;;;;;;4.97;2.42;;;-2.20;1.00;;;;;;20763286;28;20499;-37
2024/01/10 01:17:45;;;;;;;5.60;2.23;;;-2.20;1.00;;;;;;20759911;28;20052;-37
2024/01/10 01:27:46;;;;;;;8.13;2.53;;;-2.20;1.00;;;;;;20764286;28;20467;-37
2024/01/10 01:37:46;;;;;;;5.80;2.28;;;-2.20;1.00;;;;;;20763744;28;20976;-37
2024/01/10 01:47:47;;;;;;;5.38;2.65;;;-2.30;1.00;;;;;;20764921;28;20088;-38
2024/01/10 01:57:48;;;;;;;6.80;2.97;;;-2.50;1.00;;;;;;20768039;28;20457;-37
2024/01/10 02:07:48;;;;;;;8.23;3.35;;;-2.50;1.00;;;;;;20769406;28;20500;-37
2024/01/10 02:17:49;;;;;;;8.73;4.32;;;-2.40;1.00;;;;;;20765734;28;20051;-37
2024/01/10 02:27:49;;;;;;;8.98;4.13;;;-2.50;1.00;;;;;;20761674;28;20213;-37
2024/01/10 02:37:51;;;;;;;7.72;3.45;;;-2.60;1.00;;;;;;20757974;28;20445;-37
2024/01/10 02:47:52;;;;;;;9.27;4.10;;;-2.60;1.00;;;;;;20755512;28;20041;-37
2024/01/10 02:57:52;;;;;;;7.95;4.30;;;-2.60;1.00;;;;;;20758508;28;20041;-37
2024/01/10 03:07:53;;;;;;;8.70;4.00;;;-2.70;1.00;;;;;;20760099;28;20033;-37
2024/01/10 03:17:53;;;;;;;7.10;3.63;;;-2.70;1.00;;;;;;20756119;28;20103;-37
2024/01/10 03:27:54;;;;;;;6.13;3.08;;;-2.80;1.00;;;;;;20754994;28;20537;-37
2024/01/10 03:37:55;;;;;;;7.57;3.15;;;-2.80;1.00;;;;;;20750715;28;20473;-37
2024/01/10 03:47:55;;;;;;;10.23;3.67;;;-2.90;1.00;;;;;;20755812;28;20037;-37
2024/01/10 03:57:56;;;;;;;7.45;3.00;;;-2.90;1.00;;;;;;20757514;28;20052;-37
2024/01/10 04:07:57;;;;;;;8.98;3.33;;;-2.80;1.00;;;;;;20765772;28;20556;-37
2024/01/10 04:17:58;;;;;;;10.95;3.35;;;-2.70;1.00;;;;;;20762673;28;20046;-37
2024/01/10 04:27:59;;;;;;;6.50;3.33;;;-2.90;1.00;;;;;;20770249;28;20119;-38
2024/01/10 04:37:59;;;;;;;6.88;3.13;;;-2.90;1.00;;;;;;20778354;28;20108;-37
2024/01/10 04:48:00;;;;;;;8.23;3.28;;;-2.90;1.00;;;;;;20773321;28;20084;-37
2024/01/10 04:58:00;;;;;;;7.50;3.88;;;-2.90;1.00;;;;;;20771563;28;20275;-38
2024/01/10 05:08:01;;;;;;;7.28;3.60;;;-2.90;1.00;;;;;;20771330;28;20125;-38
2024/01/10 05:18:02;;;;;;;8.55;4.20;;;-2.90;1.00;;;;;;20764708;28;20049;-38
2024/01/10 05:28:03;;;;;;;10.00;4.30;;;-3.00;1.00;;;;;;20768476;28;20041;-38
2024/01/10 05:38:04;;;;;;;7.57;4.07;;;-2.90;1.00;;;;;;20771127;28;20040;-38
2024/01/10 05:48:06;;;;;;;9.43;4.60;;;-3.00;1.00;;;;;;20768232;28;20042;-38
2024/01/10 05:58:09;;;;;;;10.52;4.47;;;-3.00;1.00;;;;;;20764543;28;20476;-38
2024/01/10 06:08:10;;;;;;;10.63;4.07;;;-3.00;1.00;;;;;;20762562;28;20464;-38
2024/01/10 06:18:11;;;;;;;9.25;4.10;;;-3.00;1.00;;;;;;20766600;28;20045;-38
2024/01/10 06:28:11;;;;;;;8.25;3.53;;;-3.00;1.00;;;;;;20763888;28;20033;-38
2024/01/10 06:38:12;;;;;;;8.30;3.55;;;-2.90;1.00;;;;;;20765513;28;20048;-38
2024/01/10 06:48:12;;;;;;;9.23;4.22;;;-3.00;1.00;;;;;;20761275;28;20092;-38
2024/01/10 06:58:13;;;;;;;9.23;4.03;;;-3.00;1.00;;;;;;20761867;28;20038;-38
2024/01/10 07:08:14;;;;;;;7.90;3.47;;;-3.00;1.00;;;;;;20761814;28;20124;-38
2024/01/10 07:18:15;;;;;;;9.05;3.67;;;-3.00;1.00;;;;;;20763088;28;20507;-38
2024/01/10 07:28:17;;;;;;;8.77;3.67;;;-3.00;1.00;;;;;;20758894;28;20045;-37
2024/01/10 07:38:18;;;;;;;7.53;3.15;;;-3.10;1.00;;;;;;20758829;28;20484;-37
2024/01/10 07:48:22;;;;;;;6.95;3.28;;;-3.10;1.00;;;;;;20761120;28;20148;-37
2024/01/10 07:58:22;;;;;;;7.90;3.55;;;-3.10;1.00;;;;;;20755722;28;20049;-38
2024/01/10 08:08:23;;;;;;;9.73;4.18;;;-3.00;1.00;;;;;;20759375;28;20042;-38
2024/01/10 08:18:23;;;;;;;8.98;3.72;;;-3.10;1.00;;;;;;20767306;28;20048;-38
2024/01/10 08:28:26;;;;;;;6.80;3.17;;;-3.00;1.00;;;;;;20761563;28;21078;-38
2024/01/10 08:38:26;;;;;;;7.57;3.30;;;-2.90;1.00;;;;;;20769139;28;20533;-38
2024/01/10 08:48:27;;;;;;;6.15;3.30;;;-2.80;1.00;;;;;;20761583;28;20038;-38
2024/01/10 08:58:27;;;;;;;8.60;3.78;;;-2.70;1.00;;;;;;20761393;28;20524;-37
2024/01/10 09:08:28;;;;;;;8.75;3.80;;;-2.60;1.00;;;;;;20755642;28;20042;-38
2024/01/10 09:18:28;;;;;;;8.50;4.05;;;-2.50;1.00;;;;;;20765028;28;20133;-37
2024/01/10 09:28:29;;;;;;;8.60;3.10;;;-2.30;1.00;;;;;;20750202;28;20042;-39
2024/01/10 09:38:34;;;;;;;9.10;3.45;;;-2.00;1.00;;;;;;20758018;28;20538;-37
2024/01/10 09:48:35;;;;;;;7.68;3.50;;;-1.90;1.00;;;;;;20758801;28;20441;-38
2024/01/10 09:58:39;;;;;;;8.87;3.90;;;-1.70;1.00;;;;;;20758357;28;20046;-38
2024/01/10 10:08:43;;;;;;;10.27;4.07;;;-1.50;1.00;;;;;;20758893;28;20440;-38
2024/01/10 10:18:44;;;;;;;11.35;4.60;;;-1.40;1.00;;;;;;20752096;28;20038;-38
2024/01/10 10:28:46;;;;;;;10.73;4.15;;;-1.10;1.00;;;;;;20756741;28;20383;-38
2024/01/10 10:38:50;;;;;;;10.10;4.13;;;-1.00;1.00;;;;;;20756967;28;20042;-38
2024/01/10 10:48:51;;;;;;;11.45;4.45;;;-0.70;1.00;;;;;;20755964;28;20056;-38
2024/01/10 10:58:53;;;;;;;8.18;4.25;;;-0.40;1.00;;;;;;20756719;28;20041;-39
2024/01/10 11:09:11;;;;;;;12.90;4.25;;;-0.10;1.00;;;;;;20758446;28;20046;-39
2024/01/10 11:19:33;;;;;;;10.30;3.90;;;0.30;1.00;;;;;;20746706;28;20037;-39
2024/01/10 11:29:38;;;;;;;9.68;3.88;;;0.80;1.00;;;;;;20756074;28;20042;-39
2024/01/10 11:39:42;;;;;;;8.70;4.32;;;1.10;1.00;;;;;;20755053;28;20485;-38
2024/01/10 11:49:57;;;;;;;10.77;3.95;;;1.40;1.00;;;;;;20773491;28;20492;-38
2024/01/10 12:00:03;;;;;;;11.43;4.63;;;1.70;1.00;;;;;;20773577;28;20406;-38
2024/01/10 12:10:04;;;;;;;13.88;5.35;;;1.80;1.00;;;;;;20771399;28;20593;-38
2024/01/10 12:20:06;;;;;;;11.02;4.57;;;2.00;1.00;;;;;;20766116;28;20540;-38
2024/01/10 12:30:07;;;;;;;10.88;4.72;;;2.10;1.00;;;;;;20773537;28;20065;-38
2024/01/10 12:40:08;;;;;;;8.45;4.45;;;2.40;1.00;;;;;;20746448;28;20033;-39
2024/01/10 12:50:09;;;;;;;10.98;4.50;;;2.50;1.00;;;;;;20750072;28;20571;-39
2024/01/10 13:00:11;;;;;;;8.73;4.72;;;2.70;1.00;;;;;;20674215;28;20042;-39
2024/01/10 13:10:12;;;;;;;9.30;4.78;;;2.80;1.00;;;;;;20658370;28;20494;-39
2024/01/10 13:20:13;;;;;;;10.95;5.07;;;2.80;1.00;;;;;;20655546;28;20446;-39
2024/01/10 13:30:14;;;;;;;10.77;5.45;;;2.50;1.00;;;;;;20662957;28;20034;-39
2024/01/10 13:40:14;;;;;;;9.55;4.80;;;2.20;1.00;;;;;;20653985;28;20096;-40
2024/01/10 13:50:16;;;;;;;11.90;5.13;;;1.90;1.00;;;;;;20655240;28;20033;-40
2024/01/10 14:00:19;;;;;;;10.90;5.35;;;1.60;1.00;;;;;;20658737;28;20460;-40
2024/01/10 14:10:20;;;;;;;9.55;4.63;;;1.60;1.00;;;;;;20644990;28;20046;-40
2024/01/10 14:20:21;;;;;;;10.50;4.93;;;1.40;1.00;;;;;;20661812;28;20046;-38
2024/01/10 14:30:21;;;;;;;11.68;4.90;;;1.20;1.00;;;;;;20674501;28;20096;-38
2024/01/10 14:40:23;;;;;;;11.43;5.05;;;1.10;1.00;;;;;;20666842;28;20120;-39
2024/01/10 14:50:24;;;;;;;10.30;4.93;;;1.00;1.00;;;;;;20663536;28;20039;-39
2024/01/10 15:00:25;;;;;;;9.20;4.65;;;0.90;1.00;;;;;;20668509;28;20572;-39
2024/01/10 15:10:25;;;;;;;11.15;5.45;;;0.80;1.00;;;;;;20665595;28;20510;-41
2024/01/10 15:20:26;;;;;;;10.75;5.40;;;0.80;1.00;;;;;;20649584;28;20091;-39
2024/01/10 15:30:28;;;;;;;14.32;5.13;;;0.70;1.00;;;;;;20651287;28;20046;-39
2024/01/10 15:40:28;;;;;;;11.25;5.53;;;0.60;1.00;;;;;;20659310;28;20053;-39
2024/01/10 15:50:29;;;;;;;9.73;4.95;;;0.40;1.00;;;;;;20647335;28;20100;-39
2024/01/10 16:00:29;;;;;;;9.80;5.40;;;0.30;1.00;;;;;;20646211;28;20413;-39
2024/01/10 16:10:30;;;;;;;10.45;5.25;;;0.30;1.00;;;;;;20650901;28;20041;-39
2024/01/10 16:20:30;;;;;;;13.98;6.53;;;0.10;1.00;;;;;;20654459;28;20121;-39
2024/01/10 16:30:31;;;;;;;10.70;5.30;;;0.10;1.00;;;;;;20663948;28;20038;-39
2024/01/10 16:40:32;;;;;;;12.60;5.80;;;-0.10;1.00;;;;;;20666605;28;20106;-39
2024/01/10 16:50:32;;;;;;;13.43;5.93;;;-0.30;1.00;;;;;;20671051;28;20469;-39
2024/01/10 17:00:33;;;;;;;11.82;5.72;;;-0.40;1.00;;;;;;20664809;28;20092;-39
2024/01/10 17:10:34;;;;;;;12.20;6.30;;;-0.60;1.00;;;;;;20677185;28;20045;-38
2024/01/10 17:20:34;;;;;;;11.70;6.25;;;-0.60;1.00;;;;;;20674171;28;20054;-39
2024/01/10 17:30:35;;;;;;;13.23;6.95;;;-0.60;1.00;;;;;;20660583;28;20046;-39
2024/01/10 17:40:36;;;;;;;13.32;6.63;;;-0.70;1.00;;;;;;20655284;28;20506;-39
2024/01/10 17:50:37;;;;;;;17.00;7.10;;;-0.60;1.00;;;;;;20651553;28;20099;-39
2024/01/10 18:00:38;;;;;;;14.18;6.38;;;-0.70;1.00;;;;;;20654205;28;20041;-39
2024/01/10 18:10:40;;;;;;;15.27;6.85;;;-0.70;1.00;;;;;;20651209;28;20042;-39
2024/01/10 18:20:40;;;;;;;10.43;5.30;;;-0.70;1.00;;;;;;20663310;28;20061;-39
2024/01/10 18:30:42;;;;;;;38.88;15.20;;;-0.80;1.00;;;;;;20653259;28;20070;-39
2024/01/10 18:40:42;;;;;;;20.63;8.93;;;-0.70;1.00;;;;;;20654285;28;20049;-40
2024/01/10 18:50:43;;;;;;;16.30;7.88;;;-0.80;1.00;;;;;;20654001;28;20042;-38
2024/01/10 19:00:44;;;;;;;16.77;7.25;;;-0.90;1.00;;;;;;20659851;28;20077;-38
2024/01/10 19:10:45;;;;;;;13.77;6.73;;;-1.00;1.00;;;;;;20669529;28;20038;-39
2024/01/10 19:20:45;;;;;;;10.73;5.90;;;-1.00;1.00;;;;;;20663540;28;20469;-39
2024/01/10 19:30:46;;;;;;;11.90;5.65;;;-1.00;1.00;;;;;;20684402;28;20046;-39
2024/01/10 19:40:47;;;;;;;14.20;6.93;;;-1.10;1.00;;;;;;20652892;28;20033;-39
2024/01/10 19:50:47;;;;;;;10.57;5.40;;;-1.30;1.00;;;;;;20661501;28;20497;-39
2024/01/10 20:00:48;;;;;;;11.30;5.88;;;-1.40;1.00;;;;;;20676066;28;20479;-39
2024/01/10 20:10:49;;;;;;;12.55;6.13;;;-1.40;1.00;;;;;;20628313;28;20062;-38
2024/01/10 20:20:50;;;;;;;14.57;6.50;;;-1.50;1.00;;;;;;20662747;28;20109;-39
2024/01/10 20:30:50;;;;;;;13.15;5.32;;;-1.50;1.00;;;;;;20665867;28;20049;-38
2024/01/10 20:40:51;;;;;;;11.60;5.53;;;-1.60;1.00;;;;;;20668047;28;20450;-39
2024/01/10 20:50:52;;;;;;;10.88;5.68;;;-1.60;1.00;;;;;;20666133;28;20613;-39
2024/01/10 21:00:53;;;;;;;13.60;5.93;;;-1.50;1.00;;;;;;20666561;28;20867;-39
2024/01/10 21:10:53;;;;;;;12.20;6.25;;;-1.50;1.00;;;;;;20660943;28;20114;-38
2024/01/10 21:20:57;;;;;;;15.40;6.53;;;-1.50;1.00;;;;;;20664927;28;20093;-38
2024/01/10 21:30:58;;;;;;;15.18;6.93;;;-1.50;1.00;;;;;;20665418;28;20113;-38
2024/01/10 21:40:58;;;;;;;15.55;7.25;;;-1.70;1.00;;;;;;20662514;28;20046;-38
2024/01/10 21:51:01;;;;;;;11.95;6.40;;;-1.60;1.00;;;;;;20665134;28;20053;-39
2024/01/10 22:01:01;;;;;;;17.38;6.93;;;-1.70;1.00;;;;;;20668949;28;20073;-38
2024/01/10 22:11:02;;;;;;;13.07;6.45;;;-1.70;1.00;;;;;;20662598;28;20125;-37
2024/01/10 22:21:03;;;;;;;14.32;5.85;;;-1.70;1.00;;;;;;20658922;28;20084;-43
2024/01/10 22:31:04;;;;;;;14.40;6.45;;;-1.80;1.00;;;;;;20666189;28;20042;-38
2024/01/10 22:41:04;;;;;;;14.40;6.80;;;-1.80;1.00;;;;;;20665120;28;20056;-40
2024/01/10 22:51:05;;;;;;;16.13;6.95;;;-1.90;1.00;;;;;;20664982;28;20045;-39
2024/01/10 23:01:06;;;;;;;18.42;7.15;;;-1.90;1.00;;;;;;20665072;28;20124;-39
2024/01/10 23:11:07;;;;;;;14.32;6.50;;;-2.00;1.00;;;;;;20662863;28;20120;-38
2024/01/10 23:21:11;;;;;;;13.17;7.20;;;-2.00;1.00;;;;;;20669014;28;20107;-38
2024/01/10 23:31:18;;;;;;;18.73;6.65;;;-2.10;1.00;;;;;;20678330;28;20440;-38
2024/01/10 23:41:18;;;;;;;17.05;7.20;;;-2.10;1.00;;;;;;20673461;28;20039;-37
2024/01/10 23:51:19;;;;;;;17.75;7.47;;;-2.10;1.00;;;;;;20668479;28;20042;-38
